Time,TemperatureF,DewpointF,PressureIn,WindDirection,WindDirectionDegrees,WindSpeedMPH,WindSpeedGustMPH,Humidity,HourlyPrecipIn,Conditions,Clouds,dailyrainin,SoftwareType,DateUTC
2013-02-19 00:00:00,15.7,4.0,29.36,North,360,0.0,-999.0,53,0.00,,,0.00,Rainwise IP-100,2013-02-19 05:00:00,
2013-02-19 00:05:00,15.7,4.0,29.36,North,360,0.0,-999.0,53,0.00,,,0.00,Rainwise IP-100,2013-02-19 05:05:00,
2013-02-19 00:10:00,15.7,4.0,29.36,North,360,0.0,-999.0,53,0.00,,,0.00,Rainwise IP-100,2013-02-19 05:10:00,
2013-02-19 00:15:00,15.7,4.0,29.36,North,360,0.0,-999.0,53,0.00,,,0.00,Rainwise IP-100,2013-02-19 05:15:00,
2013-02-19 00:20:00,15.7,4.0,29.36,North,360,0.0,-999.0,53,0.00,,,0.00,Rainwise IP-100,2013-02-19 05:20:00,
2013-02-19 00:25:00,15.7,4.0,29.36,North,360,0.0,-999.0,53,0.00,,,0.00,Rainwise IP-100,2013-02-19 05:25:00,
2013-02-19 00:30:00,15.7,4.0,29.36,North,360,0.0,-999.0,53,0.00,,,0.00,Rainwise IP-100,2013-02-19 05:30:00,
2013-02-19 00:36:00,15.7,4.0,29.36,North,360,0.0,-999.0,53,0.00,,,0.00,Rainwise IP-100,2013-02-19 05:36:00,
2013-02-19 00:41:00,15.7,4.0,29.36,North,360,0.0,-999.0,53,0.00,,,0.00,Rainwise IP-100,2013-02-19 05:41:00,
2013-02-19 00:46:00,15.7,4.0,29.36,North,360,0.0,-999.0,53,0.00,,,0.00,Rainwise IP-100,2013-02-19 05:46:00,
2013-02-19 00:51:00,15.7,4.0,29.36,North,360,0.0,-999.0,53,0.00,,,0.00,Rainwise IP-100,2013-02-19 05:51:00,
2013-02-19 00:56:00,15.7,4.0,29.36,North,360,0.0,-999.0,53,0.00,,,0.00,Rainwise IP-100,2013-02-19 05:56:00,
2013-02-19 01:01:00,15.7,4.0,29.36,North,360,0.0,-999.0,53,0.00,,,0.00,Rainwise IP-100,2013-02-19 06:01:00,
2013-02-19 01:06:00,15.7,4.0,29.36,North,360,0.0,-999.0,53,0.00,,,0.00,Rainwise IP-100,2013-02-19 06:06:00,
2013-02-19 01:11:00,15.7,4.0,29.36,North,360,0.0,-999.0,53,0.00,,,0.00,Rainwise IP-100,2013-02-19 06:11:00,
2013-02-19 01:17:00,15.7,4.0,29.36,North,360,0.0,-999.0,53,0.00,,,0.00,Rainwise IP-100,2013-02-19 06:17:00,
2013-02-19 01:22:00,15.7,4.0,29.36,North,360,0.0,-999.0,53,0.00,,,0.00,Rainwise IP-100,2013-02-19 06:22:00,
2013-02-19 01:27:00,15.7,4.0,29.36,North,360,0.0,-999.0,53,0.00,,,0.00,Rainwise IP-100,2013-02-19 06:27:00,
2013-02-19 01:32:00,15.7,4.0,29.36,North,360,0.0,-999.0,53,0.00,,,0.00,Rainwise IP-100,2013-02-19 06:32:00,
2013-02-19 01:37:00,15.7,4.0,29.36,North,360,0.0,-999.0,53,0.00,,,0.00,Rainwise IP-100,2013-02-19 06:37:00,
2013-02-19 01:42:00,15.7,4.0,29.36,North,360,0.0,-999.0,53,0.00,,,0.00,Rainwise IP-100,2013-02-19 06:42:00,
2013-02-19 01:47:00,15.7,4.0,29.36,North,360,0.0,-999.0,53,0.00,,,0.00,Rainwise IP-100,2013-02-19 06:47:00,
2013-02-19 01:52:00,15.7,4.0,29.36,North,360,0.0,-999.0,53,0.00,,,0.00,Rainwise IP-100,2013-02-19 06:52:00,
2013-02-19 01:58:00,15.7,4.0,29.36,North,360,0.0,-999.0,53,0.00,,,0.00,Rainwise IP-100,2013-02-19 06:58:00,
2013-02-19 02:03:00,15.7,4.0,29.36,North,360,0.0,-999.0,53,0.00,,,0.00,Rainwise IP-100,2013-02-19 07:03:00,
2013-02-19 02:08:00,15.7,4.0,29.36,North,360,0.0,-999.0,53,0.00,,,0.00,Rainwise IP-100,2013-02-19 07:08:00,
2013-02-19 02:13:00,15.7,4.0,29.36,North,360,0.0,-999.0,53,0.00,,,0.00,Rainwise IP-100,2013-02-19 07:13:00,
2013-02-19 02:18:00,15.7,4.0,29.36,North,360,0.0,-999.0,53,0.00,,,0.00,Rainwise IP-100,2013-02-19 07:18:00,
2013-02-19 02:23:00,15.7,4.0,29.36,North,360,0.0,-999.0,53,0.00,,,0.00,Rainwise IP-100,2013-02-19 07:23:00,
2013-02-19 02:28:00,15.7,4.0,29.36,North,360,0.0,-999.0,53,0.00,,,0.00,Rainwise IP-100,2013-02-19 07:28:00,
2013-02-19 02:34:00,15.7,4.0,29.36,North,360,0.0,-999.0,53,0.00,,,0.00,Rainwise IP-100,2013-02-19 07:34:00,
2013-02-19 02:39:00,15.7,4.0,29.36,North,360,0.0,-999.0,53,0.00,,,0.00,Rainwise IP-100,2013-02-19 07:39:00,
2013-02-19 02:44:00,15.7,4.0,29.36,North,360,0.0,-999.0,53,0.00,,,0.00,Rainwise IP-100,2013-02-19 07:44:00,
2013-02-19 02:45:00,15.7,4.0,29.36,North,360,0.0,-999.0,53,0.00,,,0.00,Rainwise IP-100,2013-02-19 07:45:00,
2013-02-19 02:46:00,15.7,4.0,29.36,North,360,0.0,-999.0,53,0.00,,,0.00,Rainwise IP-100,2013-02-19 07:46:00,
2013-02-19 02:52:00,15.7,4.0,29.36,North,360,0.0,-999.0,53,0.00,,,0.00,Rainwise IP-100,2013-02-19 07:52:00,
2013-02-19 02:57:00,15.7,4.0,29.36,North,360,0.0,-999.0,53,0.00,,,0.00,Rainwise IP-100,2013-02-19 07:57:00,
2013-02-19 03:02:00,15.7,4.0,29.36,North,360,0.0,-999.0,53,0.00,,,0.00,Rainwise IP-100,2013-02-19 08:02:00,
2013-02-19 03:07:00,15.7,4.0,29.36,North,360,0.0,-999.0,53,0.00,,,0.00,Rainwise IP-100,2013-02-19 08:07:00,
2013-02-19 03:12:00,15.7,4.0,29.36,North,360,0.0,-999.0,53,0.00,,,0.00,Rainwise IP-100,2013-02-19 08:12:00,
2013-02-19 03:17:00,15.7,4.0,29.36,North,360,0.0,-999.0,53,0.00,,,0.00,Rainwise IP-100,2013-02-19 08:17:00,
2013-02-19 03:22:00,15.7,4.0,29.36,North,360,0.0,-999.0,53,0.00,,,0.00,Rainwise IP-100,2013-02-19 08:22:00,
2013-02-19 03:28:00,15.7,4.0,29.36,North,360,0.0,-999.0,53,0.00,,,0.00,Rainwise IP-100,2013-02-19 08:28:00,
2013-02-19 03:33:00,15.7,4.0,29.36,North,360,0.0,-999.0,53,0.00,,,0.00,Rainwise IP-100,2013-02-19 08:33:00,
2013-02-19 03:38:00,15.7,4.0,29.36,North,360,0.0,-999.0,53,0.00,,,0.00,Rainwise IP-100,2013-02-19 08:38:00,
2013-02-19 03:43:00,15.7,4.0,29.36,North,360,0.0,-999.0,53,0.00,,,0.00,Rainwise IP-100,2013-02-19 08:43:00,
2013-02-19 03:48:00,15.7,4.0,29.36,North,360,0.0,-999.0,53,0.00,,,0.00,Rainwise IP-100,2013-02-19 08:48:00,
2013-02-19 03:53:00,15.7,4.0,29.36,North,360,0.0,-999.0,53,0.00,,,0.00,Rainwise IP-100,2013-02-19 08:53:00,
2013-02-19 03:58:00,15.7,4.0,29.36,North,360,0.0,-999.0,53,0.00,,,0.00,Rainwise IP-100,2013-02-19 08:58:00,
2013-02-19 04:03:00,15.7,4.0,29.36,WSW,247,0.0,-999.0,53,0.00,,,0.00,Rainwise IP-100,2013-02-19 09:03:00,
2013-02-19 04:09:00,15.1,11.0,29.36,WSW,247,0.0,-999.0,73,0.00,,,0.00,Rainwise IP-100,2013-02-19 09:09:00,
2013-02-19 04:14:00,15.3,8.0,29.36,WSW,247,0.0,-999.0,70,0.00,,,0.00,Rainwise IP-100,2013-02-19 09:14:00,
2013-02-19 04:19:00,15.7,8.0,29.36,WSW,247,0.0,-999.0,70,0.00,,,0.00,Rainwise IP-100,2013-02-19 09:19:00,
2013-02-19 04:24:00,15.8,8.0,29.36,WSW,247,2.0,-999.0,70,0.00,,,0.00,Rainwise IP-100,2013-02-19 09:24:00,
2013-02-19 04:29:00,15.9,8.0,29.36,WSW,247,0.0,-999.0,68,0.00,,,0.00,Rainwise IP-100,2013-02-19 09:29:00,
2013-02-19 04:34:00,16.2,8.0,29.36,WSW,247,0.0,-999.0,71,0.00,,,0.00,Rainwise IP-100,2013-02-19 09:34:00,
2013-02-19 04:39:00,16.2,8.0,29.36,WSW,247,0.0,-999.0,71,0.00,,,0.00,Rainwise IP-100,2013-02-19 09:39:00,
2013-02-19 04:45:00,16.1,8.0,29.36,WSW,247,0.0,-999.0,71,0.00,,,0.00,Rainwise IP-100,2013-02-19 09:45:00,
2013-02-19 04:50:00,15.8,8.0,29.36,WSW,247,0.0,-999.0,72,0.00,,,0.00,Rainwise IP-100,2013-02-19 09:50:00,
2013-02-19 04:55:00,15.5,8.0,29.36,WSW,247,0.0,-999.0,71,0.00,,,0.00,Rainwise IP-100,2013-02-19 09:55:00,
2013-02-19 05:00:00,15.3,11.0,29.35,WSW,247,0.0,-999.0,73,0.00,,,0.00,Rainwise IP-100,2013-02-19 10:00:00,
2013-02-19 05:05:00,15.1,11.0,29.35,WSW,247,0.0,-999.0,74,0.00,,,0.00,Rainwise IP-100,2013-02-19 10:05:00,
2013-02-19 05:10:00,14.8,11.0,29.36,ESE,112,0.0,-999.0,77,0.00,,,0.00,Rainwise IP-100,2013-02-19 10:10:00,
2013-02-19 05:16:00,14.6,11.0,29.35,ESE,112,0.0,-999.0,76,0.00,,,0.00,Rainwise IP-100,2013-02-19 10:16:00,
2013-02-19 05:21:00,14.6,11.0,29.35,ESE,112,8.0,-999.0,77,0.00,,,0.00,Rainwise IP-100,2013-02-19 10:21:00,
2013-02-19 05:26:00,14.6,11.0,29.35,ESE,112,8.0,-999.0,77,0.00,,,0.00,Rainwise IP-100,2013-02-19 10:26:00,
2013-02-19 05:31:00,14.6,11.0,29.35,ESE,112,8.0,-999.0,77,0.00,,,0.00,Rainwise IP-100,2013-02-19 10:31:00,
2013-02-19 05:36:00,14.6,11.0,29.35,ESE,112,8.0,-999.0,77,0.00,,,0.00,Rainwise IP-100,2013-02-19 10:36:00,
2013-02-19 05:41:00,14.6,11.0,29.35,ESE,112,8.0,-999.0,77,0.00,,,0.00,Rainwise IP-100,2013-02-19 10:41:00,
2013-02-19 05:46:00,14.6,11.0,29.35,ESE,112,8.0,-999.0,77,0.00,,,0.00,Rainwise IP-100,2013-02-19 10:46:00,
2013-02-19 05:52:00,14.6,11.0,29.35,ESE,112,8.0,-999.0,77,0.00,,,0.00,Rainwise IP-100,2013-02-19 10:52:00,
2013-02-19 05:57:00,14.6,11.0,29.35,ESE,112,8.0,-999.0,77,0.00,,,0.00,Rainwise IP-100,2013-02-19 10:57:00,
2013-02-19 06:02:00,14.6,11.0,29.35,ESE,112,8.0,-999.0,77,0.00,,,0.00,Rainwise IP-100,2013-02-19 11:02:00,
2013-02-19 06:07:00,14.6,11.0,29.35,ESE,112,8.0,-999.0,77,0.00,,,0.00,Rainwise IP-100,2013-02-19 11:07:00,
2013-02-19 06:12:00,14.6,11.0,29.35,ESE,112,8.0,-999.0,77,0.00,,,0.00,Rainwise IP-100,2013-02-19 11:12:00,
2013-02-19 06:17:00,14.6,11.0,29.35,ESE,112,8.0,-999.0,77,0.00,,,0.00,Rainwise IP-100,2013-02-19 11:17:00,
2013-02-19 06:22:00,14.6,11.0,29.35,ESE,112,8.0,-999.0,77,0.00,,,0.00,Rainwise IP-100,2013-02-19 11:22:00,
2013-02-19 06:27:00,14.6,11.0,29.35,ESE,112,8.0,-999.0,77,0.00,,,0.00,Rainwise IP-100,2013-02-19 11:27:00,
2013-02-19 06:33:00,14.6,11.0,29.35,ESE,112,8.0,-999.0,77,0.00,,,0.00,Rainwise IP-100,2013-02-19 11:33:00,
2013-02-19 06:38:00,14.6,11.0,29.35,ESE,112,8.0,-999.0,77,0.00,,,0.00,Rainwise IP-100,2013-02-19 11:38:00,
2013-02-19 06:43:00,14.6,11.0,29.35,ESE,112,8.0,-999.0,77,0.00,,,0.00,Rainwise IP-100,2013-02-19 11:43:00,
2013-02-19 06:48:00,14.6,11.0,29.35,ESE,112,8.0,-999.0,77,0.00,,,0.00,Rainwise IP-100,2013-02-19 11:48:00,
2013-02-19 06:53:00,14.6,11.0,29.35,ESE,112,8.0,-999.0,77,0.00,,,0.00,Rainwise IP-100,2013-02-19 11:53:00,
2013-02-19 06:58:00,14.6,11.0,29.35,ESE,112,8.0,-999.0,77,0.00,,,0.00,Rainwise IP-100,2013-02-19 11:58:00,
2013-02-19 07:03:00,14.6,11.0,29.35,ESE,112,8.0,-999.0,77,0.00,,,0.00,Rainwise IP-100,2013-02-19 12:03:00,
2013-02-19 07:09:00,14.6,11.0,29.35,ESE,112,8.0,-999.0,77,0.00,,,0.00,Rainwise IP-100,2013-02-19 12:09:00,
2013-02-19 07:14:00,14.6,11.0,29.35,ESE,112,8.0,-999.0,77,0.00,,,0.00,Rainwise IP-100,2013-02-19 12:14:00,
2013-02-19 07:19:00,14.6,11.0,29.35,ESE,112,8.0,-999.0,77,0.00,,,0.00,Rainwise IP-100,2013-02-19 12:19:00,
2013-02-19 07:24:00,14.6,11.0,29.35,ESE,112,8.0,-999.0,77,0.00,,,0.00,Rainwise IP-100,2013-02-19 12:24:00,
2013-02-19 07:29:00,14.6,11.0,29.35,ESE,112,8.0,-999.0,77,0.00,,,0.00,Rainwise IP-100,2013-02-19 12:29:00,
2013-02-19 07:34:00,12.9,11.0,29.35,NE,45,0.0,-999.0,89,0.00,,,0.00,Rainwise IP-100,2013-02-19 12:34:00,
2013-02-19 07:39:00,14.8,14.0,29.31,NE,45,0.0,-999.0,84,0.00,,,0.00,Rainwise IP-100,2013-02-19 12:39:00,
2013-02-19 07:44:00,16.2,11.0,29.31,NE,45,0.0,-999.0,80,0.00,,,0.00,Rainwise IP-100,2013-02-19 12:44:00,
2013-02-19 07:50:00,17.3,14.0,29.31,NE,45,0.0,-999.0,81,0.00,,,0.00,Rainwise IP-100,2013-02-19 12:50:00,
2013-02-19 07:55:00,18.2,14.0,29.31,NE,45,0.0,-999.0,79,0.00,,,0.00,Rainwise IP-100,2013-02-19 12:55:00,
2013-02-19 08:00:00,19.0,14.0,29.31,NE,45,0.0,-999.0,77,0.00,,,0.00,Rainwise IP-100,2013-02-19 13:00:00,
2013-02-19 08:05:00,20.3,11.0,29.32,East,90,2.0,-999.0,68,0.00,,,0.00,Rainwise IP-100,2013-02-19 13:05:00,
2013-02-19 08:10:00,19.8,11.0,29.32,East,90,2.0,-999.0,67,0.00,,,0.00,Rainwise IP-100,2013-02-19 13:10:00,
2013-02-19 08:15:00,19.2,11.0,29.32,East,90,1.0,-999.0,68,0.00,,,0.00,Rainwise IP-100,2013-02-19 13:15:00,
2013-02-19 08:20:00,19.3,11.0,29.32,ENE,67,2.0,-999.0,66,0.00,,,0.00,Rainwise IP-100,2013-02-19 13:20:00,
2013-02-19 08:26:00,19.4,11.0,29.32,ENE,67,3.0,-999.0,66,0.00,,,0.00,Rainwise IP-100,2013-02-19 13:26:00,
2013-02-19 08:31:00,19.4,11.0,29.32,ENE,67,1.0,-999.0,66,0.00,,,0.00,Rainwise IP-100,2013-02-19 13:31:00,
2013-02-19 08:36:00,18.9,11.0,29.31,ENE,67,2.0,-999.0,67,0.00,,,0.00,Rainwise IP-100,2013-02-19 13:36:00,
2013-02-19 08:41:00,18.5,11.0,29.31,ENE,67,3.0,-999.0,66,0.00,,,0.00,Rainwise IP-100,2013-02-19 13:41:00,
2013-02-19 08:46:00,18.4,11.0,29.31,ENE,67,1.0,-999.0,68,0.00,,,0.00,Rainwise IP-100,2013-02-19 13:46:00,
2013-02-19 08:51:00,18.5,11.0,29.31,ENE,67,0.0,-999.0,67,0.00,,,0.00,Rainwise IP-100,2013-02-19 13:51:00,
2013-02-19 08:56:00,18.6,11.0,29.31,ENE,67,2.0,-999.0,67,0.00,,,0.00,Rainwise IP-100,2013-02-19 13:56:00,
2013-02-19 09:01:00,18.8,11.0,29.31,ENE,67,2.0,-999.0,66,0.00,,,0.00,Rainwise IP-100,2013-02-19 14:01:00,
2013-02-19 09:07:00,19.2,11.0,29.31,ENE,67,3.0,-999.0,65,0.00,,,0.00,Rainwise IP-100,2013-02-19 14:07:00,
2013-02-19 09:12:00,19.5,11.0,29.30,ESE,112,3.0,-999.0,65,0.00,,,0.00,Rainwise IP-100,2013-02-19 14:12:00,
2013-02-19 09:17:00,19.9,11.0,29.30,ESE,112,4.0,-999.0,64,0.00,,,0.00,Rainwise IP-100,2013-02-19 14:17:00,
2013-02-19 09:22:00,20.2,11.0,29.30,ENE,67,4.0,-999.0,62,0.00,,,0.00,Rainwise IP-100,2013-02-19 14:22:00,
2013-02-19 09:27:00,20.7,11.0,29.30,ENE,67,2.0,-999.0,62,0.00,,,0.00,Rainwise IP-100,2013-02-19 14:27:00,
2013-02-19 09:32:00,21.6,11.0,29.30,ENE,67,3.0,-999.0,60,0.00,,,0.00,Rainwise IP-100,2013-02-19 14:32:00,
2013-02-19 09:37:00,22.7,11.0,29.28,ESE,112,1.0,-999.0,57,0.00,,,0.00,Rainwise IP-100,2013-02-19 14:37:00,
2013-02-19 09:42:00,23.4,11.0,29.28,NE,45,1.0,-999.0,58,0.00,,,0.00,Rainwise IP-100,2013-02-19 14:42:00,
2013-02-19 09:48:00,24.4,14.0,29.28,NE,45,3.0,-999.0,58,0.00,,,0.00,Rainwise IP-100,2013-02-19 14:48:00,
2013-02-19 09:53:00,25.8,14.0,29.28,NNE,22,4.0,-999.0,59,0.00,,,0.00,Rainwise IP-100,2013-02-19 14:53:00,
2013-02-19 09:58:00,26.8,14.0,29.27,NE,45,2.0,-999.0,50,0.00,,,0.00,Rainwise IP-100,2013-02-19 14:58:00,
2013-02-19 10:03:00,26.8,14.0,29.27,NNE,22,3.0,-999.0,50,0.00,,,0.00,Rainwise IP-100,2013-02-19 15:03:00,
2013-02-19 10:08:00,27.1,14.0,29.27,NE,45,1.0,-999.0,51,0.00,,,0.00,Rainwise IP-100,2013-02-19 15:08:00,
2013-02-19 10:13:00,27.8,14.0,29.26,SW,225,1.0,-999.0,50,0.00,,,0.00,Rainwise IP-100,2013-02-19 15:13:00,
2013-02-19 10:18:00,28.1,14.0,29.26,WSW,247,4.0,-999.0,51,0.00,,,0.00,Rainwise IP-100,2013-02-19 15:18:00,
2013-02-19 10:24:00,28.1,11.0,29.26,SW,225,5.0,-999.0,48,0.00,,,0.00,Rainwise IP-100,2013-02-19 15:24:00,
2013-02-19 10:29:00,28.1,14.0,29.26,WSW,247,0.0,-999.0,50,0.00,,,0.00,Rainwise IP-100,2013-02-19 15:29:00,
2013-02-19 10:34:00,28.7,14.0,29.26,WSW,247,7.0,-999.0,49,0.00,,,0.00,Rainwise IP-100,2013-02-19 15:34:00,
2013-02-19 10:39:00,29.1,14.0,29.26,South,180,1.0,-999.0,49,0.00,,,0.00,Rainwise IP-100,2013-02-19 15:39:00,
2013-02-19 10:44:00,29.4,14.0,29.27,SE,135,4.0,-999.0,50,0.00,,,0.00,Rainwise IP-100,2013-02-19 15:44:00,
2013-02-19 10:49:00,30.5,14.0,29.27,WSW,247,5.0,-999.0,49,0.00,,,0.00,Rainwise IP-100,2013-02-19 15:49:00,
2013-02-19 10:54:00,30.8,14.0,29.27,South,180,5.0,-999.0,47,0.00,,,0.00,Rainwise IP-100,2013-02-19 15:54:00,
2013-02-19 10:59:00,31.6,14.0,29.27,SSE,157,3.0,-999.0,46,0.00,,,0.00,Rainwise IP-100,2013-02-19 15:59:00,
2013-02-19 11:05:00,31.9,14.0,29.25,West,270,7.0,-999.0,47,0.00,,,0.00,Rainwise IP-100,2013-02-19 16:05:00,
2013-02-19 11:10:00,31.4,14.0,29.25,SSE,157,3.0,-999.0,48,0.00,,,0.00,Rainwise IP-100,2013-02-19 16:10:00,
2013-02-19 11:15:00,31.9,14.0,29.25,SSW,202,4.0,-999.0,47,0.00,,,0.00,Rainwise IP-100,2013-02-19 16:15:00,
2013-02-19 11:20:00,32.2,14.0,29.25,SSE,157,4.0,-999.0,47,0.00,,,0.00,Rainwise IP-100,2013-02-19 16:20:00,
2013-02-19 11:25:00,32.4,16.0,29.25,ESE,112,6.0,-999.0,48,0.00,,,0.00,Rainwise IP-100,2013-02-19 16:25:00,
2013-02-19 11:30:00,33.6,16.0,29.24,WSW,247,2.0,-999.0,44,0.00,,,0.00,Rainwise IP-100,2013-02-19 16:30:00,
2013-02-19 11:35:00,33.5,16.0,29.24,SSE,157,4.0,-999.0,46,0.00,,,0.00,Rainwise IP-100,2013-02-19 16:35:00,
2013-02-19 11:41:00,33.9,16.0,29.24,SSW,202,1.0,-999.0,46,0.00,,,0.00,Rainwise IP-100,2013-02-19 16:41:00,
2013-02-19 11:46:00,34.1,16.0,29.23,South,180,7.0,-999.0,47,0.00,,,0.00,Rainwise IP-100,2013-02-19 16:46:00,
2013-02-19 11:51:00,34.2,16.0,29.23,South,180,2.0,-999.0,47,0.00,,,0.00,Rainwise IP-100,2013-02-19 16:51:00,
2013-02-19 11:56:00,34.6,18.0,29.23,SW,225,3.0,-999.0,48,0.00,,,0.00,Rainwise IP-100,2013-02-19 16:56:00,
2013-02-19 12:01:00,34.9,18.0,29.22,SSW,202,5.0,-999.0,49,0.00,,,0.00,Rainwise IP-100,2013-02-19 17:01:00,
2013-02-19 12:06:00,34.9,18.0,29.22,SE,135,4.0,-999.0,49,0.00,,,0.00,Rainwise IP-100,2013-02-19 17:06:00,
2013-02-19 12:11:00,35.2,18.0,29.21,WSW,247,7.0,-999.0,50,0.00,,,0.00,Rainwise IP-100,2013-02-19 17:11:00,
2013-02-19 12:16:00,35.1,18.0,29.21,WSW,247,0.0,-999.0,50,0.00,,,0.00,Rainwise IP-100,2013-02-19 17:16:00,
2013-02-19 12:22:00,34.8,18.0,29.21,SSW,202,0.0,-999.0,52,0.00,,,0.00,Rainwise IP-100,2013-02-19 17:22:00,
2013-02-19 12:27:00,34.8,21.0,29.21,SW,225,3.0,-999.0,53,0.00,,,0.00,Rainwise IP-100,2013-02-19 17:27:00,
2013-02-19 12:32:00,34.7,21.0,29.20,West,270,4.0,-999.0,53,0.00,,,0.00,Rainwise IP-100,2013-02-19 17:32:00,
2013-02-19 12:37:00,35.0,21.0,29.20,South,180,4.0,-999.0,54,0.00,,,0.00,Rainwise IP-100,2013-02-19 17:37:00,
2013-02-19 12:42:00,35.2,21.0,29.19,SSW,202,5.0,-999.0,56,0.00,,,0.00,Rainwise IP-100,2013-02-19 17:42:00,
2013-02-19 12:47:00,35.3,21.0,29.19,South,180,0.0,-999.0,56,0.00,,,0.00,Rainwise IP-100,2013-02-19 17:47:00,
2013-02-19 12:52:00,35.3,21.0,29.18,SW,225,2.0,-999.0,56,0.00,,,0.00,Rainwise IP-100,2013-02-19 17:52:00,
2013-02-19 12:58:00,35.0,21.0,29.18,WSW,247,5.0,-999.0,57,0.00,,,0.00,Rainwise IP-100,2013-02-19 17:58:00,
2013-02-19 13:03:00,34.7,23.0,29.18,SSE,157,1.0,-999.0,58,0.00,,,0.00,Rainwise IP-100,2013-02-19 18:03:00,
2013-02-19 13:08:00,34.7,23.0,29.18,SSE,157,4.0,-999.0,60,0.00,,,0.00,Rainwise IP-100,2013-02-19 18:08:00,
2013-02-19 13:13:00,34.7,23.0,29.17,SE,135,3.0,-999.0,60,0.00,,,0.00,Rainwise IP-100,2013-02-19 18:13:00,
2013-02-19 13:18:00,34.6,23.0,29.17,SSE,157,5.0,-999.0,60,0.00,,,0.00,Rainwise IP-100,2013-02-19 18:18:00,
2013-02-19 13:23:00,34.7,23.0,29.17,SW,225,0.0,-999.0,61,0.00,,,0.00,Rainwise IP-100,2013-02-19 18:23:00,
2013-02-19 13:28:00,34.8,23.0,29.16,SSE,157,2.0,-999.0,61,0.00,,,0.00,Rainwise IP-100,2013-02-19 18:28:00,
2013-02-19 13:33:00,34.9,23.0,29.16,West,270,2.0,-999.0,62,0.00,,,0.00,Rainwise IP-100,2013-02-19 18:33:00,
2013-02-19 13:39:00,35.0,23.0,29.15,SSW,202,0.0,-999.0,61,0.00,,,0.00,Rainwise IP-100,2013-02-19 18:39:00,
2013-02-19 13:44:00,35.3,23.0,29.15,SSE,157,3.0,-999.0,62,0.00,,,0.00,Rainwise IP-100,2013-02-19 18:44:00,
2013-02-19 13:49:00,35.3,23.0,29.15,East,90,4.0,-999.0,60,0.00,,,0.00,Rainwise IP-100,2013-02-19 18:49:00,
2013-02-19 13:54:00,35.1,23.0,29.14,ESE,112,2.0,-999.0,62,0.00,,,0.00,Rainwise IP-100,2013-02-19 18:54:00,
2013-02-19 13:59:00,34.9,23.0,29.14,South,180,3.0,-999.0,62,0.00,,,0.00,Rainwise IP-100,2013-02-19 18:59:00,
2013-02-19 14:04:00,35.4,23.0,29.13,South,180,1.0,-999.0,61,0.00,,,0.00,Rainwise IP-100,2013-02-19 19:04:00,
2013-02-19 14:09:00,35.6,24.0,29.13,ENE,67,0.0,-999.0,62,0.00,,,0.00,Rainwise IP-100,2013-02-19 19:09:00,
2013-02-19 14:14:00,35.8,24.0,29.13,ESE,112,1.0,-999.0,63,0.00,,,0.00,Rainwise IP-100,2013-02-19 19:14:00,
2013-02-19 14:20:00,35.9,24.0,29.13,South,180,2.0,-999.0,62,0.00,,,0.00,Rainwise IP-100,2013-02-19 19:20:00,
2013-02-19 14:25:00,36.3,24.0,29.12,East,90,0.0,-999.0,62,0.00,,,0.00,Rainwise IP-100,2013-02-19 19:25:00,
2013-02-19 14:30:00,36.8,24.0,29.12,South,180,0.0,-999.0,61,0.00,,,0.00,Rainwise IP-100,2013-02-19 19:30:00,
2013-02-19 14:35:00,37.2,24.0,29.11,SSE,157,1.0,-999.0,61,0.00,,,0.00,Rainwise IP-100,2013-02-19 19:35:00,
2013-02-19 14:40:00,37.8,26.0,29.11,NE,45,1.0,-999.0,60,0.00,,,0.00,Rainwise IP-100,2013-02-19 19:40:00,
2013-02-19 14:45:00,38.3,26.0,29.11,South,180,0.0,-999.0,59,0.00,,,0.00,Rainwise IP-100,2013-02-19 19:45:00,
2013-02-19 14:50:00,38.5,26.0,29.10,South,180,2.0,-999.0,59,0.00,,,0.00,Rainwise IP-100,2013-02-19 19:50:00,
2013-02-19 14:56:00,38.1,26.0,29.10,South,180,3.0,-999.0,60,0.00,,,0.00,Rainwise IP-100,2013-02-19 19:56:00,
2013-02-19 15:01:00,37.9,26.0,29.09,South,180,2.0,-999.0,59,0.00,,,0.00,Rainwise IP-100,2013-02-19 20:01:00,
2013-02-19 15:06:00,37.7,26.0,29.09,WSW,247,3.0,-999.0,60,0.00,,,0.00,Rainwise IP-100,2013-02-19 20:06:00,
2013-02-19 15:11:00,37.5,26.0,29.09,SSE,157,0.0,-999.0,61,0.00,,,0.00,Rainwise IP-100,2013-02-19 20:11:00,
2013-02-19 15:16:00,37.4,26.0,29.08,South,180,0.0,-999.0,62,0.00,,,0.00,Rainwise IP-100,2013-02-19 20:16:00,
2013-02-19 15:21:00,37.5,26.0,29.08,ENE,67,1.0,-999.0,61,0.00,,,0.00,Rainwise IP-100,2013-02-19 20:21:00,
2013-02-19 15:26:00,38.0,26.0,29.08,SW,225,2.0,-999.0,61,0.00,,,0.00,Rainwise IP-100,2013-02-19 20:26:00,
2013-02-19 15:31:00,38.2,26.0,29.07,ESE,112,3.0,-999.0,61,0.00,,,0.00,Rainwise IP-100,2013-02-19 20:31:00,
2013-02-19 15:37:00,38.3,26.0,29.07,SSW,202,0.0,-999.0,61,0.00,,,0.00,Rainwise IP-100,2013-02-19 20:37:00,
2013-02-19 15:42:00,38.2,26.0,29.07,SW,225,0.0,-999.0,62,0.00,,,0.00,Rainwise IP-100,2013-02-19 20:42:00,
2013-02-19 15:47:00,38.3,26.0,29.07,SW,225,0.0,-999.0,63,0.00,,,0.00,Rainwise IP-100,2013-02-19 20:47:00,
2013-02-19 15:52:00,38.3,26.0,29.06,SW,225,0.0,-999.0,63,0.00,,,0.00,Rainwise IP-100,2013-02-19 20:52:00,
2013-02-19 15:57:00,38.2,28.0,29.06,ENE,67,3.0,-999.0,64,0.00,,,0.00,Rainwise IP-100,2013-02-19 20:57:00,
2013-02-19 16:02:00,38.1,28.0,29.06,South,180,0.0,-999.0,65,0.00,,,0.00,Rainwise IP-100,2013-02-19 21:02:00,
2013-02-19 16:07:00,38.0,28.0,29.06,South,180,0.0,-999.0,65,0.00,,,0.00,Rainwise IP-100,2013-02-19 21:07:00,
2013-02-19 16:13:00,38.0,29.0,29.06,SSE,157,4.0,-999.0,68,0.00,,,0.00,Rainwise IP-100,2013-02-19 21:13:00,
2013-02-19 16:18:00,38.1,29.0,29.05,SE,135,3.0,-999.0,70,0.00,,,0.00,Rainwise IP-100,2013-02-19 21:18:00,
2013-02-19 16:23:00,38.2,29.0,29.05,SE,135,1.0,-999.0,70,0.00,,,0.00,Rainwise IP-100,2013-02-19 21:23:00,
2013-02-19 16:28:00,38.2,31.0,29.05,SW,225,1.0,-999.0,72,0.00,,,0.00,Rainwise IP-100,2013-02-19 21:28:00,
2013-02-19 16:33:00,38.2,31.0,29.05,South,180,3.0,-999.0,73,0.00,,,0.00,Rainwise IP-100,2013-02-19 21:33:00,
2013-02-19 16:38:00,38.3,31.0,29.04,South,180,5.0,-999.0,74,0.00,,,0.00,Rainwise IP-100,2013-02-19 21:38:00,
2013-02-19 16:43:00,38.3,31.0,29.04,WSW,247,4.0,-999.0,75,0.00,,,0.00,Rainwise IP-100,2013-02-19 21:43:00,
2013-02-19 16:48:00,38.5,32.0,29.03,SSW,202,4.0,-999.0,76,0.00,,,0.00,Rainwise IP-100,2013-02-19 21:48:00,
2013-02-19 16:54:00,38.4,32.0,29.03,SSE,157,0.0,-999.0,77,0.00,,,0.00,Rainwise IP-100,2013-02-19 21:54:00,
2013-02-19 16:59:00,38.3,32.0,29.02,SSW,202,6.0,-999.0,78,0.00,,,0.00,Rainwise IP-100,2013-02-19 21:59:00,
2013-02-19 17:04:00,37.9,33.0,29.03,ESE,112,4.0,-999.0,81,0.00,,,0.00,Rainwise IP-100,2013-02-19 22:04:00,
2013-02-19 17:09:00,37.8,33.0,29.02,SW,225,0.0,-999.0,83,0.00,,,0.00,Rainwise IP-100,2013-02-19 22:09:00,
2013-02-19 17:14:00,37.7,33.0,29.02,SSW,202,4.0,-999.0,83,0.00,,,0.00,Rainwise IP-100,2013-02-19 22:14:00,
2013-02-19 17:19:00,37.5,35.0,29.02,NNE,22,1.0,-999.0,86,0.00,,,0.00,Rainwise IP-100,2013-02-19 22:19:00,
2013-02-19 17:24:00,37.6,35.0,29.01,ESE,112,4.0,-999.0,86,0.00,,,0.00,Rainwise IP-100,2013-02-19 22:24:00,
2013-02-19 17:30:00,37.6,35.0,29.02,SSE,157,2.0,-999.0,86,0.00,,,0.00,Rainwise IP-100,2013-02-19 22:30:00,
2013-02-19 17:35:00,37.5,35.0,29.01,SW,225,1.0,-999.0,88,0.00,,,0.00,Rainwise IP-100,2013-02-19 22:35:00,
2013-02-19 17:40:00,37.4,35.0,29.01,WNW,292,3.0,-999.0,89,0.00,,,0.00,Rainwise IP-100,2013-02-19 22:40:00,
2013-02-19 17:45:00,37.3,35.0,29.01,South,180,5.0,-999.0,91,0.00,,,0.00,Rainwise IP-100,2013-02-19 22:45:00,
2013-02-19 17:50:00,37.2,35.0,29.01,SSW,202,2.0,-999.0,91,0.00,,,0.00,Rainwise IP-100,2013-02-19 22:50:00,
2013-02-19 17:55:00,37.1,35.0,29.01,SSW,202,0.0,-999.0,92,0.00,,,0.00,Rainwise IP-100,2013-02-19 22:55:00,
2013-02-19 18:00:00,36.9,35.0,29.01,SW,225,6.0,-999.0,93,0.00,,,0.00,Rainwise IP-100,2013-02-19 23:00:00,
2013-02-19 18:05:00,37.0,35.0,29.00,South,180,1.0,-999.0,93,0.00,,,0.00,Rainwise IP-100,2013-02-19 23:05:00,
2013-02-19 18:11:00,36.9,35.0,29.00,West,270,2.0,-999.0,92,0.00,,,0.00,Rainwise IP-100,2013-02-19 23:11:00,
2013-02-19 18:16:00,36.9,35.0,28.99,SE,135,4.0,-999.0,93,0.00,,,0.00,Rainwise IP-100,2013-02-19 23:16:00,
2013-02-19 18:21:00,36.7,36.0,28.99,NNE,22,0.0,-999.0,95,0.00,,,0.00,Rainwise IP-100,2013-02-19 23:21:00,
2013-02-19 18:26:00,36.7,36.0,28.99,SSW,202,0.0,-999.0,95,0.00,,,0.00,Rainwise IP-100,2013-02-19 23:26:00,
2013-02-19 18:31:00,36.6,36.0,28.99,SE,135,2.0,-999.0,95,0.00,,,0.00,Rainwise IP-100,2013-02-19 23:31:00,
2013-02-19 18:36:00,36.6,36.0,28.99,WSW,247,2.0,-999.0,96,0.00,,,0.00,Rainwise IP-100,2013-02-19 23:36:00,
2013-02-19 18:41:00,36.5,36.0,28.99,WSW,247,0.0,-999.0,96,0.00,,,0.00,Rainwise IP-100,2013-02-19 23:41:00,
2013-02-19 18:47:00,36.4,35.0,28.99,SSE,157,2.0,-999.0,95,0.00,,,0.00,Rainwise IP-100,2013-02-19 23:47:00,
2013-02-19 18:52:00,36.3,35.0,28.98,South,180,5.0,-999.0,95,0.00,,,0.00,Rainwise IP-100,2013-02-19 23:52:00,
2013-02-19 18:57:00,36.3,35.0,28.98,East,90,2.0,-999.0,95,0.00,,,0.00,Rainwise IP-100,2013-02-19 23:57:00,
2013-02-19 19:02:00,36.4,35.0,28.98,SSW,202,0.0,-999.0,96,0.00,,,0.00,Rainwise IP-100,2013-02-20 00:02:00,
2013-02-19 19:07:00,36.3,35.0,28.98,SSE,157,2.0,-999.0,96,0.00,,,0.00,Rainwise IP-100,2013-02-20 00:07:00,
2013-02-19 19:12:00,36.2,35.0,28.97,SSW,202,0.0,-999.0,96,0.00,,,0.00,Rainwise IP-100,2013-02-20 00:12:00,
2013-02-19 19:17:00,36.2,35.0,28.97,South,180,2.0,-999.0,96,0.00,,,0.00,Rainwise IP-100,2013-02-20 00:17:00,
2013-02-19 19:22:00,36.3,35.0,28.97,SW,225,0.0,-999.0,96,0.00,,,0.00,Rainwise IP-100,2013-02-20 00:22:00,
2013-02-19 19:28:00,36.3,35.0,28.96,ESE,112,0.0,-999.0,96,0.06,,,0.01,Rainwise IP-100,2013-02-20 00:28:00,
2013-02-19 19:33:00,36.2,35.0,28.96,ESE,112,0.0,-999.0,96,0.06,,,0.01,Rainwise IP-100,2013-02-20 00:33:00,
2013-02-19 19:38:00,35.9,35.0,28.95,SSE,157,0.0,-999.0,96,0.00,,,0.01,Rainwise IP-100,2013-02-20 00:38:00,
2013-02-19 19:43:00,35.9,35.0,28.95,South,180,0.0,-999.0,96,0.00,,,0.01,Rainwise IP-100,2013-02-20 00:43:00,
2013-02-19 19:48:00,35.9,35.0,28.95,West,270,0.0,-999.0,96,0.00,,,0.01,Rainwise IP-100,2013-02-20 00:48:00,
2013-02-19 19:53:00,35.8,35.0,28.94,WSW,247,0.0,-999.0,97,0.00,,,0.01,Rainwise IP-100,2013-02-20 00:53:00,
2013-02-19 19:58:00,35.9,35.0,28.94,WSW,247,0.0,-999.0,97,0.00,,,0.01,Rainwise IP-100,2013-02-20 00:58:00,
2013-02-19 20:04:00,35.9,35.0,28.94,WSW,247,0.0,-999.0,97,0.00,,,0.01,Rainwise IP-100,2013-02-20 01:04:00,
2013-02-19 20:09:00,35.8,35.0,28.93,SSE,157,1.0,-999.0,97,0.00,,,0.01,Rainwise IP-100,2013-02-20 01:09:00,
2013-02-19 20:14:00,35.9,35.0,28.93,SSE,157,0.0,-999.0,96,0.00,,,0.01,Rainwise IP-100,2013-02-20 01:14:00,
2013-02-19 20:19:00,35.8,35.0,28.93,SSE,157,0.0,-999.0,97,0.00,,,0.01,Rainwise IP-100,2013-02-20 01:19:00,
2013-02-19 20:24:00,35.7,36.0,28.93,SSE,157,0.0,-999.0,98,0.00,,,0.01,Rainwise IP-100,2013-02-20 01:24:00,
2013-02-19 20:29:00,35.7,35.0,28.92,SSE,157,0.0,-999.0,97,0.00,,,0.01,Rainwise IP-100,2013-02-20 01:29:00,
2013-02-19 20:34:00,35.6,36.0,28.93,ENE,67,2.0,-999.0,98,0.00,,,0.01,Rainwise IP-100,2013-02-20 01:34:00,
2013-02-19 20:39:00,35.9,36.0,28.92,SE,135,0.0,-999.0,98,0.00,,,0.01,Rainwise IP-100,2013-02-20 01:39:00,
2013-02-19 20:45:00,35.6,35.0,28.93,SE,135,0.0,-999.0,97,0.06,,,0.02,Rainwise IP-100,2013-02-20 01:45:00,
2013-02-19 20:50:00,35.3,35.0,28.92,ENE,67,3.0,-999.0,98,0.06,,,0.02,Rainwise IP-100,2013-02-20 01:50:00,
2013-02-19 20:55:00,35.5,36.0,28.92,East,90,0.0,-999.0,99,0.00,,,0.02,Rainwise IP-100,2013-02-20 01:55:00,
2013-02-19 21:00:00,35.5,36.0,28.91,East,90,0.0,-999.0,98,0.00,,,0.02,Rainwise IP-100,2013-02-20 02:00:00,
2013-02-19 21:05:00,35.4,35.0,28.90,NE,45,2.0,-999.0,98,0.00,,,0.02,Rainwise IP-100,2013-02-20 02:05:00,
2013-02-19 21:10:00,35.3,35.0,28.90,NE,45,0.0,-999.0,98,0.00,,,0.02,Rainwise IP-100,2013-02-20 02:10:00,
2013-02-19 21:15:00,34.9,35.0,28.91,NE,45,0.0,-999.0,98,0.06,,,0.03,Rainwise IP-100,2013-02-20 02:15:00,
2013-02-19 21:21:00,34.5,35.0,28.90,West,270,0.0,-999.0,98,0.06,,,0.03,Rainwise IP-100,2013-02-20 02:21:00,
2013-02-19 21:26:00,34.1,35.0,28.89,West,270,0.0,-999.0,99,0.00,,,0.03,Rainwise IP-100,2013-02-20 02:26:00,
2013-02-19 21:31:00,33.9,35.0,28.89,West,270,0.0,-999.0,100,0.00,,,0.03,Rainwise IP-100,2013-02-20 02:31:00,
2013-02-19 21:36:00,33.9,35.0,28.88,West,270,0.0,-999.0,99,0.00,,,0.03,Rainwise IP-100,2013-02-20 02:36:00,
2013-02-19 21:41:00,33.7,35.0,28.89,West,270,0.0,-999.0,99,0.00,,,0.03,Rainwise IP-100,2013-02-20 02:41:00,
2013-02-19 21:46:00,33.7,35.0,28.88,West,270,0.0,-999.0,99,0.00,,,0.03,Rainwise IP-100,2013-02-20 02:46:00,
2013-02-19 21:51:00,33.7,35.0,28.88,West,270,0.0,-999.0,99,0.00,,,0.03,Rainwise IP-100,2013-02-20 02:51:00,
2013-02-19 21:56:00,33.7,35.0,28.89,West,270,0.0,-999.0,99,0.00,,,0.03,Rainwise IP-100,2013-02-20 02:56:00,
2013-02-19 22:02:00,33.7,35.0,28.89,West,270,0.0,-999.0,99,0.00,,,0.03,Rainwise IP-100,2013-02-20 03:02:00,
2013-02-19 22:07:00,33.7,35.0,28.89,SSE,157,0.0,-999.0,99,0.00,,,0.03,Rainwise IP-100,2013-02-20 03:07:00,
2013-02-19 22:12:00,33.8,35.0,28.89,SSE,157,0.0,-999.0,99,0.00,,,0.03,Rainwise IP-100,2013-02-20 03:12:00,
2013-02-19 22:17:00,33.9,35.0,28.88,SSE,157,0.0,-999.0,99,0.00,,,0.03,Rainwise IP-100,2013-02-20 03:17:00,
2013-02-19 22:22:00,34.1,35.0,28.88,SSE,157,0.0,-999.0,99,0.00,,,0.03,Rainwise IP-100,2013-02-20 03:22:00,
2013-02-19 22:27:00,34.2,35.0,28.88,SSE,157,0.0,-999.0,99,0.00,,,0.03,Rainwise IP-100,2013-02-20 03:27:00,
2013-02-19 22:32:00,34.1,35.0,28.89,SSE,157,0.0,-999.0,99,0.00,,,0.03,Rainwise IP-100,2013-02-20 03:32:00,
2013-02-19 22:38:00,34.1,35.0,28.88,SSE,157,0.0,-999.0,99,0.00,,,0.03,Rainwise IP-100,2013-02-20 03:38:00,
2013-02-19 22:43:00,34.3,35.0,28.88,SE,135,1.0,-999.0,100,0.00,,,0.03,Rainwise IP-100,2013-02-20 03:43:00,
2013-02-19 22:48:00,34.6,35.0,28.87,SE,135,0.0,-999.0,98,0.00,,,0.03,Rainwise IP-100,2013-02-20 03:48:00,
2013-02-19 22:53:00,34.7,35.0,28.87,SE,135,0.0,-999.0,98,0.00,,,0.03,Rainwise IP-100,2013-02-20 03:53:00,
2013-02-19 22:58:00,34.4,35.0,28.87,SW,225,0.0,-999.0,100,0.00,,,0.03,Rainwise IP-100,2013-02-20 03:58:00,
2013-02-19 23:03:00,34.1,35.0,28.88,SW,225,0.0,-999.0,100,0.00,,,0.03,Rainwise IP-100,2013-02-20 04:03:00,
2013-02-19 23:08:00,33.8,35.0,28.88,SW,225,0.0,-999.0,100,0.00,,,0.03,Rainwise IP-100,2013-02-20 04:08:00,
2013-02-19 23:13:00,33.9,35.0,28.86,SW,225,0.0,-999.0,99,0.00,,,0.03,Rainwise IP-100,2013-02-20 04:13:00,
2013-02-19 23:19:00,33.9,35.0,28.86,SW,225,0.0,-999.0,99,0.00,,,0.03,Rainwise IP-100,2013-02-20 04:19:00,
2013-02-19 23:24:00,33.7,35.0,28.85,SW,225,0.0,-999.0,100,0.00,,,0.03,Rainwise IP-100,2013-02-20 04:24:00,
2013-02-19 23:29:00,33.4,33.0,28.85,SW,225,2.0,-999.0,100,0.00,,,0.03,Rainwise IP-100,2013-02-20 04:29:00,
2013-02-19 23:34:00,33.0,33.0,28.85,SW,225,2.0,-999.0,100,0.00,,,0.03,Rainwise IP-100,2013-02-20 04:34:00,
2013-02-19 23:39:00,32.9,33.0,28.84,SW,225,0.0,-999.0,100,0.00,,,0.03,Rainwise IP-100,2013-02-20 04:39:00,
2013-02-19 23:44:00,32.7,33.0,28.84,SW,225,1.0,-999.0,100,0.00,,,0.03,Rainwise IP-100,2013-02-20 04:44:00,
2013-02-19 23:49:00,32.6,33.0,28.85,SW,225,0.0,-999.0,100,0.00,,,0.03,Rainwise IP-100,2013-02-20 04:49:00,
2013-02-19 23:55:00,32.5,33.0,28.84,SW,225,0.0,-999.0,100,0.00,,,0.03,Rainwise IP-100,2013-02-20 04:55:00,